Time;durP1;ratioP1;P1;durP2;ratioP2;P2;SDS_P1;SDS_P2;PMS_P1;PMS_P2;Temp;Humidity;BMP_temperature;BMP_pressure;BME280_temperature;BME280_humidity;BME280_pressure;Samples;Min_cycle;Max_cycle;Signal;HPM_P1;HPM_P2
2021/09/06 00:00:08;;;;;;;9.48;8.00;;;;;;;17.09;100.00;96855.75;5096804;28;20078;-59
2021/09/06 00:02:36;;;;;;;9.65;7.88;;;;;;;16.79;100.00;96855.59;5095231;27;20098;-57
2021/09/06 00:05:09;;;;;;;10.13;8.35;;;;;;;17.01;100.00;96851.31;5107506;27;20105;-57
2021/09/06 00:07:38;;;;;;;12.48;8.95;;;;;;;16.71;100.00;96852.91;5092757;28;20072;-54
2021/09/06 00:10:27;;;;;;;10.63;9.00;;;;;;;16.82;100.00;96852.56;5095125;28;20074;-57
2021/09/06 00:12:55;;;;;;;10.30;8.40;;;;;;;17.30;100.00;96842.59;5094140;28;20434;-52
2021/09/06 00:15:24;;;;;;;9.82;8.40;;;;;;;17.16;100.00;96847.88;5102735;27;20082;-57
2021/09/06 00:17:52;;;;;;;12.13;8.63;;;;;;;17.31;100.00;96846.13;5104084;28;20532;-55
2021/09/06 00:20:22;;;;;;;10.88;8.38;;;;;;;16.93;100.00;96851.34;5101581;27;20134;-49
2021/09/06 00:22:51;;;;;;;11.30;8.23;;;;;;;16.90;100.00;96853.53;5097206;28;20764;-57
2021/09/06 00:25:20;;;;;;;10.95;8.80;;;;;;;16.56;100.00;96849.34;5097566;28;20071;-51
2021/09/06 00:27:49;;;;;;;11.30;8.50;;;;;;;16.86;100.00;96850.38;5091829;28;20076;-53
2021/09/06 00:30:17;;;;;;;12.25;9.25;;;;;;;16.30;100.00;96852.22;5093828;28;20067;-57
2021/09/06 00:32:46;;;;;;;14.82;10.35;;;;;;;16.69;100.00;96854.09;5100786;28;20090;-56
2021/09/06 00:35:14;;;;;;;11.85;8.98;;;;;;;16.87;100.00;96843.22;5105627;28;20052;-54
2021/09/06 00:37:45;;;;;;;10.82;8.77;;;;;;;16.63;100.00;96858.28;5099718;28;20067;-51
2021/09/06 00:40:14;;;;;;;12.45;8.88;;;;;;;16.88;100.00;96856.38;5103025;28;20052;-57
2021/09/06 00:42:43;;;;;;;14.10;8.95;;;;;;;16.99;100.00;96855.13;5104272;28;20059;-57
2021/09/06 00:45:12;;;;;;;11.40;8.80;;;;;;;16.75;100.00;96854.25;5097669;28;20063;-53
2021/09/06 00:47:42;;;;;;;12.40;9.00;;;;;;;17.09;100.00;96855.75;5089649;28;20551;-56
2021/09/06 00:50:12;;;;;;;9.48;7.72;;;;;;;16.95;100.00;96861.81;5111760;28;20078;-54
2021/09/06 00:52:43;;;;;;;11.02;8.27;;;;;;;16.89;100.00;96855.34;5100839;28;20078;-54
2021/09/06 00:55:17;;;;;;;11.25;8.57;;;;;;;16.53;100.00;96857.66;5095131;28;20043;-54
2021/09/06 00:57:48;;;;;;;10.73;8.57;;;;;;;16.06;100.00;96853.94;5091291;28;20078;-52
2021/09/06 01:00:18;;;;;;;9.88;7.72;;;;;;;16.69;100.00;96854.09;5104072;27;20063;-54
2021/09/06 01:02:47;;;;;;;11.15;8.52;;;;;;;16.48;100.00;96858.19;5097306;27;20063;-56
2021/09/06 01:05:16;;;;;;;14.60;9.15;;;;;;;16.56;100.00;96852.00;5097288;27;20071;-56
2021/09/06 01:07:44;;;;;;;10.63;8.48;;;;;;;16.70;100.00;96851.25;5100453;27;20083;-55
2021/09/06 01:10:15;;;;;;;12.18;8.38;;;;;;;16.51;100.00;96846.34;5102131;28;20063;-54
2021/09/06 01:12:43;;;;;;;;;;;;;;;16.77;100.00;96846.09;5099290;27;20067;-55
2021/09/06 01:15:12;;;;;;;10.05;7.35;;;;;;;16.75;100.00;96848.94;5097771;27;19970;-59
2021/09/06 01:17:40;;;;;;;10.57;8.38;;;;;;;16.36;100.00;96846.22;5109641;27;20086;-54
2021/09/06 01:20:10;;;;;;;9.15;7.05;;;;;;;16.60;100.00;96846.13;5096680;27;20504;-53
2021/09/06 01:22:39;;;;;;;10.40;7.60;;;;;;;16.45;100.00;96844.34;5097548;27;20059;-55
2021/09/06 01:25:08;;;;;;;7.82;7.00;;;;;;;16.63;100.00;96850.31;5098334;27;20076;-53
2021/09/06 01:27:39;;;;;;;11.50;8.20;;;;;;;16.65;100.00;96848.28;5103579;27;20079;-54
2021/09/06 01:30:08;;;;;;;8.57;7.33;;;;;;;16.71;100.00;96844.09;5100771;27;20074;-56
2021/09/06 01:32:36;;;;;;;11.20;7.57;;;;;;;16.68;100.00;96853.25;5096015;28;20071;-54
2021/09/06 01:35:06;;;;;;;10.02;7.93;;;;;;;16.67;100.00;96848.94;5103367;27;20079;-51
2021/09/06 01:37:35;;;;;;;9.43;7.10;;;;;;;16.40;100.00;96849.38;5094973;27;20636;-52
2021/09/06 01:40:04;;;;;;;8.38;6.88;;;;;;;16.23;100.00;96853.91;5095668;27;20043;-53
2021/09/06 01:42:33;;;;;;;9.55;7.22;;;;;;;16.31;100.00;96857.41;5101419;27;20067;-55
2021/09/06 01:45:03;;;;;;;6.85;6.05;;;;;;;16.12;100.00;96853.28;5110098;27;21187;-54
2021/09/06 01:47:32;;;;;;;7.97;6.82;;;;;;;16.24;100.00;96850.25;5100858;27;20078;-56
2021/09/06 01:50:01;;;;;;;8.82;6.65;;;;;;;16.20;100.00;96852.41;5101775;27;20067;-55
2021/09/06 01:52:29;;;;;;;7.50;6.22;;;;;;;16.37;100.00;96855.88;5102371;27;20059;-56
2021/09/06 01:54:57;;;;;;;9.38;6.22;;;;;;;16.44;100.00;96856.84;5097059;27;20055;-55
2021/09/06 01:57:26;;;;;;;7.90;6.15;;;;;;;16.34;100.00;96849.09;5095000;27;20082;-55
2021/09/06 01:59:54;;;;;;;11.02;7.22;;;;;;;16.27;100.00;96858.72;5082730;28;20063;-54
2021/09/06 02:02:24;;;;;;;7.25;6.38;;;;;;;16.38;100.00;96847.72;5102444;27;20074;-55
2021/09/06 02:04:53;;;;;;;8.32;6.25;;;;;;;16.06;100.00;96850.47;5095294;27;21383;-56
2021/09/06 02:07:21;;;;;;;8.05;6.80;;;;;;;16.19;100.00;96857.94;5101764;27;20071;-52
2021/09/06 02:09:49;;;;;;;7.63;6.10;;;;;;;16.25;100.00;96855.41;5093722;28;20074;-56
2021/09/06 02:12:18;;;;;;;10.55;7.78;;;;;;;16.27;100.00;96857.91;5097727;27;20067;-56
2021/09/06 02:14:47;;;;;;;7.82;6.70;;;;;;;16.28;100.00;96859.56;5093794;28;20534;-55
2021/09/06 02:17:15;;;;;;;6.93;6.22;;;;;;;15.79;100.00;96864.94;5104133;28;20071;-55
2021/09/06 02:19:45;;;;;;;8.27;6.95;;;;;;;15.78;100.00;96864.13;5099647;27;20138;-56
2021/09/06 02:22:13;;;;;;;13.43;9.13;;;;;;;15.62;100.00;96872.06;5102746;27;20075;-56
2021/09/06 02:24:42;;;;;;;9.85;8.20;;;;;;;15.69;100.00;96865.16;5102257;27;20489;-57
2021/09/06 02:27:10;;;;;;;14.73;9.13;;;;;;;15.72;100.00;96871.94;5102644;27;20062;-57
2021/09/06 02:29:39;;;;;;;14.13;9.07;;;;;;;15.51;100.00;96872.41;5101310;27;20079;-56
2021/09/06 02:32:07;;;;;;;12.98;9.63;;;;;;;15.33;100.00;96877.88;5099671;27;20080;-55
2021/09/06 02:34:36;;;;;;;12.50;9.35;;;;;;;15.54;100.00;96869.41;5102677;27;20078;-55
2021/09/06 02:37:06;;;;;;;11.55;8.45;;;;;;;15.23;100.00;96869.22;5096983;27;20521;-54
2021/09/06 02:39:35;;;;;;;14.82;8.93;;;;;;;15.18;100.00;96867.06;5099634;27;20075;-55
2021/09/06 02:42:04;;;;;;;14.15;9.02;;;;;;;15.26;100.00;96877.69;5100934;27;20074;-52
2021/09/06 02:44:32;;;;;;;10.77;8.20;;;;;;;15.18;100.00;96881.16;5090166;27;20074;-53
2021/09/06 02:47:01;;;;;;;12.65;9.40;;;;;;;15.35;100.00;96875.88;5099962;27;20086;-55
2021/09/06 02:49:29;;;;;;;12.27;8.32;;;;;;;15.30;100.00;96868.41;5112448;27;20063;-55
2021/09/06 02:51:57;;;;;;;13.35;9.32;;;;;;;15.66;100.00;96868.97;5083574;28;20064;-55
2021/09/06 02:54:27;;;;;;;12.60;9.73;;;;;;;15.63;100.00;96863.13;5094917;27;20067;-54
2021/09/06 02:56:55;;;;;;;11.93;9.30;;;;;;;15.71;100.00;96864.97;5095493;28;20056;-51
2021/09/06 02:59:24;;;;;;;11.25;9.02;;;;;;;15.96;100.00;96863.94;5095522;27;20101;-56
2021/09/06 03:01:52;;;;;;;12.20;9.75;;;;;;;15.79;100.00;96860.47;5099858;27;20285;-51
2021/09/06 03:04:22;;;;;;;12.35;9.25;;;;;;;15.60;100.00;96866.09;5102436;27;20079;-56
2021/09/06 03:06:50;;;;;;;12.27;9.23;;;;;;;15.39;100.00;96866.59;5099180;27;20063;-56
2021/09/06 03:09:19;;;;;;;13.75;9.40;;;;;;;15.69;100.00;96872.25;5093367;28;20066;-55
2021/09/06 03:11:48;;;;;;;11.80;8.80;;;;;;;15.87;100.00;96863.13;5098466;27;20071;-54
2021/09/06 03:14:17;;;;;;;12.48;9.52;;;;;;;15.90;100.00;96865.47;5094821;27;20637;-54
2021/09/06 03:16:45;;;;;;;10.80;8.63;;;;;;;15.92;100.00;96864.44;5099566;27;20063;-55
2021/09/06 03:19:14;;;;;;;18.67;10.25;;;;;;;15.93;100.00;96866.09;5095811;27;20509;-52
2021/09/06 03:21:42;;;;;;;20.95;9.90;;;;;;;15.66;100.00;96863.66;5111062;27;20071;-54
2021/09/06 03:24:11;;;;;;;16.73;9.63;;;;;;;15.84;100.00;96863.47;5086300;27;20059;-56
2021/09/06 03:26:39;;;;;;;12.88;8.95;;;;;;;15.95;100.00;96862.28;5095545;27;20419;-54
2021/09/06 03:29:09;;;;;;;18.85;9.63;;;;;;;15.84;100.00;96858.16;5104457;27;20505;-55
2021/09/06 03:31:37;;;;;;;10.93;8.90;;;;;;;15.94;100.00;96857.97;5084518;28;20502;-52
2021/09/06 03:34:06;;;;;;;12.98;9.52;;;;;;;15.86;100.00;96863.28;5095140;27;20068;-51
2021/09/06 03:36:34;;;;;;;13.52;8.23;;;;;;;15.85;100.00;96862.44;5094371;27;20070;-54
2021/09/06 03:39:03;;;;;;;11.07;7.90;;;;;;;15.66;100.00;96865.47;5101231;27;20059;-56
2021/09/06 03:41:33;;;;;;;12.48;9.32;;;;;;;15.12;100.00;96875.69;5099494;27;20071;-56
2021/09/06 03:44:01;;;;;;;14.60;10.15;;;;;;;15.24;100.00;96871.69;5106939;27;20105;-56
2021/09/06 03:46:31;;;;;;;14.77;10.40;;;;;;;15.08;100.00;96874.34;5083914;27;20393;-55
2021/09/06 03:49:00;;;;;;;14.95;11.13;;;;;;;15.14;100.00;96863.03;5094964;27;20063;-55
2021/09/06 03:51:28;;;;;;;14.88;11.52;;;;;;;15.26;100.00;96861.75;5079198;28;20051;-56
2021/09/06 03:53:56;;;;;;;14.77;11.60;;;;;;;14.77;100.00;96869.59;5099319;28;20071;-56
2021/09/06 03:56:27;;;;;;;13.32;11.15;;;;;;;14.79;100.00;96862.28;5098267;28;20417;-57
2021/09/06 03:58:55;;;;;;;13.07;9.93;;;;;;;15.13;100.00;96872.84;5099588;27;20086;-56
2021/09/06 04:01:23;;;;;;;14.10;10.10;;;;;;;15.25;100.00;96878.69;5094803;28;20457;-54
2021/09/06 04:03:53;;;;;;;14.10;10.85;;;;;;;15.23;100.00;96871.88;5094895;28;20068;-55
2021/09/06 04:06:22;;;;;;;18.53;9.80;;;;;;;15.38;100.00;96868.41;5095396;27;20074;-53
2021/09/06 04:08:50;;;;;;;12.27;9.85;;;;;;;15.19;100.00;96874.84;5095577;27;20068;-57
2021/09/06 04:11:19;;;;;;;12.98;10.13;;;;;;;15.12;100.00;96881.81;5097976;28;20678;-56
2021/09/06 04:13:47;;;;;;;68.70;61.22;;;;;;;14.90;100.00;96877.94;5110983;27;20153;-52
2021/09/06 04:16:16;;;;;;;27.42;21.27;;;;;;;15.26;100.00;96875.03;5098551;28;20465;-57
2021/09/06 04:18:44;;;;;;;14.23;11.90;;;;;;;15.13;100.00;96874.69;5097850;28;20063;-55
2021/09/06 04:21:14;;;;;;;15.45;12.68;;;;;;;15.13;100.00;96882.63;5115233;27;20060;-56
2021/09/06 04:23:43;;;;;;;15.80;12.60;;;;;;;14.92;100.00;96878.59;5096854;28;20086;-54
2021/09/06 04:26:11;;;;;;;13.65;10.93;;;;;;;14.92;100.00;96881.25;5110093;28;20505;-54
2021/09/06 04:28:40;;;;;;;18.90;10.68;;;;;;;14.59;100.00;96882.13;5115723;28;20059;-57
2021/09/06 04:31:08;;;;;;;13.57;10.93;;;;;;;14.93;100.00;96882.94;5100458;28;20059;-54
2021/09/06 04:33:36;;;;;;;14.43;9.98;;;;;;;15.03;100.00;96876.63;5102344;28;20070;-53
2021/09/06 04:36:05;;;;;;;14.25;10.20;;;;;;;14.82;100.00;96888.53;5115640;27;20074;-54
2021/09/06 04:38:35;;;;;;;11.95;9.77;;;;;;;14.32;100.00;96883.16;5107691;27;20075;-57
2021/09/06 04:41:03;;;;;;;11.45;9.75;;;;;;;14.14;100.00;96889.34;5110626;27;20512;-55
2021/09/06 04:43:31;;;;;;;10.93;9.73;;;;;;;14.55;100.00;96886.91;5103672;27;20074;-56
2021/09/06 04:46:00;;;;;;;12.75;10.45;;;;;;;14.25;100.00;96890.91;5117218;27;20059;-55
2021/09/06 04:48:28;;;;;;;12.55;10.52;;;;;;;14.05;100.00;96892.91;5107203;27;20067;-54
2021/09/06 04:50:57;;;;;;;12.70;11.07;;;;;;;14.40;100.00;96899.91;5105181;27;20418;-55
2021/09/06 04:53:25;;;;;;;14.20;11.98;;;;;;;14.38;100.00;96896.63;5106213;27;20450;-56
2021/09/06 04:55:55;;;;;;;15.32;11.65;;;;;;;14.33;100.00;96908.69;5112094;27;20092;-57
2021/09/06 04:58:23;;;;;;;11.80;10.60;;;;;;;14.81;100.00;96900.16;5105865;27;20078;-57
2021/09/06 05:00:51;;;;;;;16.80;11.45;;;;;;;14.87;100.00;96910.13;5103401;28;20562;-54
2021/09/06 05:03:20;;;;;;;13.80;11.35;;;;;;;14.88;100.00;96900.34;5119301;27;20070;-56
2021/09/06 05:05:49;;;;;;;13.45;11.50;;;;;;;14.87;100.00;96915.44;5099552;28;20067;-55
2021/09/06 05:08:18;;;;;;;13.13;11.73;;;;;;;14.82;100.00;96914.25;5099845;28;20441;-54
2021/09/06 05:10:46;;;;;;;16.65;11.63;;;;;;;14.92;100.00;96913.13;5112874;27;20528;-56
2021/09/06 05:13:16;;;;;;;14.52;10.75;;;;;;;15.14;100.00;96919.69;5119346;27;20063;-56
2021/09/06 05:15:45;;;;;;;20.80;11.48;;;;;;;14.93;100.00;96919.25;5101641;27;20067;-56
2021/09/06 05:18:13;;;;;;;22.92;12.15;;;;;;;15.09;100.00;96918.50;5102845;28;20070;-57
2021/09/06 05:20:41;;;;;;;24.30;12.00;;;;;;;14.52;100.00;96924.41;5107609;27;20075;-57
2021/09/06 05:23:10;;;;;;;23.77;12.48;;;;;;;14.55;100.00;96929.38;5106285;27;20078;-58
2021/09/06 05:25:39;;;;;;;23.00;12.20;;;;;;;15.14;100.00;96927.66;5103324;27;20131;-57
2021/09/06 05:28:07;;;;;;;17.85;11.90;;;;;;;15.48;100.00;96920.56;5111439;27;20071;-57
2021/09/06 05:30:37;;;;;;;24.17;12.90;;;;;;;15.81;100.00;96924.97;5106138;27;20110;-56
2021/09/06 05:33:05;;;;;;;22.50;12.80;;;;;;;15.71;100.00;96924.28;5102359;27;20064;-57
2021/09/06 05:35:34;;;;;;;23.67;12.88;;;;;;;15.63;100.00;96924.25;5103136;27;20059;-53
2021/09/06 05:38:02;;;;;;;23.05;13.45;;;;;;;15.61;100.00;96927.06;5122456;27;20097;-55
2021/09/06 05:40:33;;;;;;;19.90;12.32;;;;;;;16.23;100.00;96931.91;5103922;27;20059;-55
2021/09/06 05:43:03;;;;;;;17.70;12.38;;;;;;;16.05;100.00;96944.59;5101486;27;20064;-54
2021/09/06 05:45:31;;;;;;;23.33;13.50;;;;;;;16.09;100.00;96932.59;5111448;27;20509;-57
2021/09/06 05:48:01;;;;;;;21.13;14.00;;;;;;;15.97;100.00;96933.94;5088923;27;20058;-55
2021/09/06 05:50:30;;;;;;;33.92;18.30;;;;;;;15.97;100.00;96940.09;5099744;27;20075;-54
2021/09/06 05:52:58;;;;;;;27.10;18.65;;;;;;;16.55;100.00;96944.34;5106889;27;20068;-56
2021/09/06 05:55:27;;;;;;;24.38;20.23;;;;;;;16.71;100.00;96943.47;5103982;27;20156;-56
2021/09/06 05:57:58;;;;;;;30.40;20.02;;;;;;;17.26;100.00;96949.78;5097857;28;20059;-55
2021/09/06 06:00:26;;;;;;;20.60;16.38;;;;;;;17.01;100.00;96947.22;5107563;27;20472;-56
2021/09/06 06:02:55;;;;;;;21.92;17.65;;;;;;;17.31;100.00;96944.75;5106173;27;20062;-54
2021/09/06 06:05:25;;;;;;;18.02;13.60;;;;;;;17.71;100.00;96941.00;5103323;27;20079;-56
2021/09/06 06:07:53;;;;;;;14.57;13.07;;;;;;;18.09;100.00;96946.41;5103486;27;20039;-57
2021/09/06 06:10:22;;;;;;;16.58;12.60;;;;;;;18.19;100.00;96947.00;5109323;27;20086;-55
2021/09/06 06:12:50;;;;;;;17.48;13.50;;;;;;;18.41;100.00;96953.31;5103637;28;20051;-55
2021/09/06 06:15:19;;;;;;;15.93;13.07;;;;;;;18.55;100.00;96951.69;5102326;27;20078;-57
2021/09/06 06:17:47;;;;;;;15.23;13.23;;;;;;;18.76;100.00;96958.16;5104456;27;20067;-52
2021/09/06 06:20:18;;;;;;;19.52;13.65;;;;;;;18.90;100.00;96958.16;5112549;27;20075;-56
2021/09/06 06:22:53;;;;;;;18.73;14.60;;;;;;;19.10;100.00;96955.75;5110657;27;21345;-55
2021/09/06 06:25:21;;;;;;;17.92;14.02;;;;;;;19.33;100.00;96962.81;5100284;27;20544;-54
2021/09/06 06:27:49;;;;;;;17.35;13.82;;;;;;;19.55;100.00;96961.03;5109984;27;20067;-57
2021/09/06 06:30:18;;;;;;;15.93;13.88;;;;;;;19.51;100.00;96971.28;5110609;27;20070;-52
2021/09/06 06:32:47;;;;;;;18.42;15.40;;;;;;;19.69;100.00;96968.22;5106132;27;20043;-51
2021/09/06 06:35:15;;;;;;;22.48;15.60;;;;;;;19.84;100.00;96974.34;5106979;27;20103;-55
2021/09/06 06:37:44;;;;;;;20.08;15.75;;;;;;;20.19;100.00;96970.97;5102380;27;20083;-56
2021/09/06 06:40:15;;;;;;;21.90;17.33;;;;;;;20.31;100.00;96966.75;5108791;27;20098;-56
2021/09/06 06:42:43;;;;;;;22.40;17.38;;;;;;;20.12;100.00;96978.94;5098056;27;20087;-54
2021/09/06 06:45:12;;;;;;;21.83;17.35;;;;;;;20.29;100.00;96972.28;5098018;27;20463;-54
2021/09/06 06:47:40;;;;;;;21.33;16.85;;;;;;;20.52;100.00;96980.13;5108052;27;20083;-54
2021/09/06 06:50:10;;;;;;;23.55;18.40;;;;;;;20.47;100.00;96979.84;5105542;27;20077;-56
2021/09/06 06:52:38;;;;;;;22.80;17.85;;;;;;;20.06;100.00;96980.53;5105833;27;20529;-53
2021/09/06 06:55:08;;;;;;;23.17;18.00;;;;;;;20.51;100.00;96981.16;5119507;27;20437;-56
2021/09/06 06:57:38;;;;;;;;;;;;;;;20.77;100.00;96977.00;5104199;27;20067;-53
2021/09/06 07:00:08;;;;;;;25.02;18.63;;;;;;;20.56;100.00;96980.56;5100393;27;19970;-56
2021/09/06 07:02:36;;;;;;;27.70;19.20;;;;;;;20.64;100.00;96983.09;5107090;27;20725;-55
2021/09/06 07:05:08;;;;;;;23.00;18.77;;;;;;;20.64;100.00;96983.09;5107691;27;21132;-55
2021/09/06 07:07:38;;;;;;;24.38;17.73;;;;;;;21.19;100.00;96984.03;5102382;27;20067;-53
2021/09/06 07:10:08;;;;;;;24.73;19.58;;;;;;;21.35;100.00;96988.28;5096432;27;20067;-58
2021/09/06 07:12:36;;;;;;;22.60;18.50;;;;;;;21.34;100.00;96981.28;5106260;27;20075;-55
2021/09/06 07:15:07;;;;;;;28.40;19.58;;;;;;;20.60;100.00;96989.88;5097613;27;20458;-57
2021/09/06 07:17:37;;;;;;;30.58;19.52;;;;;;;20.84;100.00;96993.97;5096207;28;20108;-57
2021/09/06 07:20:07;;;;;;;26.48;18.70;;;;;;;20.99;100.00;96989.31;5109695;27;20075;-57
2021/09/06 07:22:35;;;;;;;27.17;19.27;;;;;;;21.67;100.00;96997.50;5106047;27;20067;-57
2021/09/06 07:25:04;;;;;;;27.45;20.10;;;;;;;21.19;100.00;96992.09;5097728;27;20191;-56
2021/09/06 07:27:35;;;;;;;25.10;19.70;;;;;;;21.41;100.00;96990.19;5107466;27;20111;-57
2021/09/06 07:30:07;;;;;;;24.17;18.88;;;;;;;22.21;100.00;96985.06;5111188;27;20477;-57
2021/09/06 07:32:36;;;;;;;25.13;19.95;;;;;;;21.55;100.00;96994.56;5096115;28;20080;-57
2021/09/06 07:35:05;;;;;;;25.85;19.42;;;;;;;21.39;100.00;96994.09;5103969;27;20106;-57
2021/09/06 07:37:33;;;;;;;23.58;18.77;;;;;;;21.86;100.00;96995.91;5088034;28;20070;-58
2021/09/06 07:40:02;;;;;;;26.38;18.40;;;;;;;22.05;100.00;97005.84;5111699;27;20071;-55
2021/09/06 07:42:31;;;;;;;25.65;19.05;;;;;;;21.72;100.00;97003.09;5104901;27;20077;-57
2021/09/06 07:44:59;;;;;;;25.45;18.45;;;;;;;22.70;100.00;97000.75;5100003;27;20071;-57
2021/09/06 07:47:29;;;;;;;26.25;18.92;;;;;;;22.72;100.00;97003.25;5116335;27;20087;-57
2021/09/06 07:49:58;;;;;;;24.23;18.98;;;;;;;22.94;100.00;97007.38;5104091;27;20083;-57
2021/09/06 07:52:26;;;;;;;24.33;18.90;;;;;;;22.33;100.00;97015.63;5101187;27;20074;-56
2021/09/06 07:54:54;;;;;;;29.65;19.92;;;;;;;21.61;100.00;97010.88;5095835;28;20457;-54
2021/09/06 07:57:23;;;;;;;27.15;19.90;;;;;;;22.31;100.00;97016.91;5107319;27;20063;-55
2021/09/06 07:59:51;;;;;;;24.65;18.95;;;;;;;22.32;100.00;97019.38;5095890;27;20063;-57
2021/09/06 08:02:20;;;;;;;24.35;18.50;;;;;;;22.49;100.00;97022.50;5109493;27;20086;-56
2021/09/06 08:04:50;;;;;;;25.48;18.33;;;;;;;22.54;100.00;97024.53;5101270;27;20298;-52
2021/09/06 08:07:19;;;;;;;24.27;18.27;;;;;;;22.25;100.00;97021.22;5095089;28;20075;-52
2021/09/06 08:09:47;;;;;;;23.23;18.38;;;;;;;22.40;100.00;97026.41;5090252;28;20486;-55
2021/09/06 08:12:16;;;;;;;24.85;17.23;;;;;;;23.42;100.00;97019.69;5101755;27;20060;-57
2021/09/06 08:14:44;;;;;;;22.13;17.45;;;;;;;22.65;100.00;97026.63;5103394;28;20079;-55
2021/09/06 08:17:12;;;;;;;24.45;18.20;;;;;;;23.31;100.00;97023.88;5096525;28;20084;-57
2021/09/06 08:19:41;;;;;;;24.70;18.08;;;;;;;23.12;100.00;97024.75;5110881;27;20076;-57
2021/09/06 08:22:10;;;;;;;25.00;17.98;;;;;;;23.52;100.00;97013.88;5096715;28;20075;-59
2021/09/06 08:24:41;;;;;;;25.20;18.33;;;;;;;23.77;95.38;97014.00;5095539;28;20071;-57
2021/09/06 08:27:09;;;;;;;;;;;;;;;24.04;98.02;97018.22;5097257;28;20090;-54
2021/09/06 08:29:37;;;;;;;24.50;18.30;;;;;;;23.49;99.90;97025.88;5112589;28;20358;-57
2021/09/06 08:32:06;;;;;;;21.38;16.65;;;;;;;23.74;96.23;97020.63;5104146;28;20083;-57
2021/09/06 08:34:35;;;;;;;23.08;18.20;;;;;;;24.04;92.71;97023.59;5102507;28;20578;-57
2021/09/06 08:37:03;;;;;;;23.00;17.40;;;;;;;24.04;93.66;97026.28;5107532;28;20071;-55
2021/09/06 08:39:33;;;;;;;22.80;17.90;;;;;;;23.44;98.98;97033.78;5110659;28;20071;-57
2021/09/06 08:42:02;;;;;;;21.50;16.98;;;;;;;23.36;97.26;97034.81;5092523;28;20101;-57
2021/09/06 08:44:30;;;;;;;21.42;16.38;;;;;;;24.09;90.60;97036.44;5102550;28;20084;-58
2021/09/06 08:46:59;;;;;;;23.25;16.55;;;;;;;23.97;89.72;97035.47;5109360;28;20078;-56
2021/09/06 08:49:27;;;;;;;20.77;16.33;;;;;;;23.72;94.53;97041.59;5110463;28;20079;-57
2021/09/06 08:51:56;;;;;;;21.83;17.48;;;;;;;23.54;100.00;97036.03;5104673;28;20073;-58
2021/09/06 08:54:24;;;;;;;22.52;16.85;;;;;;;24.11;92.83;97039.72;5103706;28;20453;-57
2021/09/06 08:56:54;;;;;;;21.85;16.80;;;;;;;24.51;91.30;97040.34;5100718;28;20065;-56
2021/09/06 08:59:23;;;;;;;20.55;16.13;;;;;;;24.36;94.05;97042.47;5101864;28;20074;-52
2021/09/06 09:01:52;;;;;;;22.75;16.67;;;;;;;24.99;91.67;97031.63;5102184;28;20298;-56
2021/09/06 09:04:23;;;;;;;21.65;16.20;;;;;;;24.99;84.51;97030.81;5113222;28;20047;-57
2021/09/06 09:06:54;;;;;;;20.42;16.38;;;;;;;25.18;85.09;97031.69;5104556;28;20094;-57
2021/09/06 09:09:27;;;;;;;20.80;15.80;;;;;;;24.63;90.46;97027.78;5100650;28;20082;-58
2021/09/06 09:12:04;;;;;;;21.67;17.20;;;;;;;24.71;85.96;97024.00;5108778;28;20056;-57
2021/09/06 09:14:34;;;;;;;23.75;17.10;;;;;;;25.17;86.97;97033.56;5105560;28;20071;-53
2021/09/06 09:17:03;;;;;;;28.58;17.15;;;;;;;24.46;90.73;97028.53;5098899;28;20079;-55
2021/09/06 09:19:31;;;;;;;24.10;16.15;;;;;;;25.10;89.35;97027.38;5103099;28;20084;-57
2021/09/06 09:22:01;;;;;;;24.48;17.73;;;;;;;24.76;88.82;97034.13;5106877;27;20070;-57
2021/09/06 09:24:30;;;;;;;20.23;16.35;;;;;;;23.90;95.15;97033.63;5105703;27;20063;-53
2021/09/06 09:27:05;;;;;;;22.42;16.23;;;;;;;24.13;98.32;97040.34;5095649;28;20442;-55
2021/09/06 09:29:33;;;;;;;21.23;15.90;;;;;;;24.75;91.17;97030.59;5103525;27;20083;-56
2021/09/06 09:32:06;;;;;;;21.65;16.73;;;;;;;25.18;84.13;97029.81;5123867;27;20086;-56
2021/09/06 09:34:38;;;;;;;21.23;15.63;;;;;;;25.71;76.65;97039.22;5100199;28;20074;-57
2021/09/06 09:37:07;;;;;;;21.30;15.23;;;;;;;25.21;78.06;97040.16;5108943;27;20089;-57
2021/09/06 09:39:36;;;;;;;22.98;15.43;;;;;;;24.94;87.18;97033.34;5098168;27;20070;-57
2021/09/06 09:42:09;;;;;;;20.33;15.75;;;;;;;25.48;82.45;97038.00;5102585;28;20062;-57
2021/09/06 09:44:47;;;;;;;22.55;15.57;;;;;;;25.32;84.30;97027.78;5100033;27;20094;-57
2021/09/06 09:47:19;;;;;;;18.92;14.68;;;;;;;25.86;78.25;97030.72;5087837;28;20657;-57
2021/09/06 09:49:48;;;;;;;20.30;15.10;;;;;;;25.57;83.17;97025.84;5101557;27;20060;-55
2021/09/06 09:52:17;;;;;;;24.17;15.45;;;;;;;25.60;80.53;97026.44;5097621;27;20565;-58
2021/09/06 09:54:46;;;;;;;21.83;16.20;;;;;;;25.79;79.84;97033.47;5099759;27;20062;-57
2021/09/06 09:57:16;;;;;;;22.67;15.57;;;;;;;26.06;76.75;97025.88;5107454;27;20075;-56
2021/09/06 09:59:45;;;;;;;;;;;;;;;26.42;74.68;97029.53;5110164;27;20525;-58
2021/09/06 10:02:16;;;;;;;19.15;14.73;;;;;;;25.37;78.32;97032.53;5100015;27;19951;-54
2021/09/06 10:04:48;;;;;;;19.02;14.77;;;;;;;25.41;80.81;97028.34;5112038;27;20067;-56
2021/09/06 10:07:18;;;;;;;17.77;13.40;;;;;;;25.47;74.11;97032.84;5102042;27;20074;-55
2021/09/06 10:09:48;;;;;;;17.90;13.75;;;;;;;25.51;73.35;97023.22;5106316;27;20080;-55
2021/09/06 10:12:22;;;;;;;19.02;15.13;;;;;;;26.23;74.28;97024.19;5102908;27;20072;-53
2021/09/06 10:14:52;;;;;;;17.48;13.98;;;;;;;26.41;74.50;97026.00;5100603;27;20067;-57
2021/09/06 10:17:34;;;;;;;15.70;12.43;;;;;;;26.58;62.96;97022.66;5117350;27;20081;-56
2021/09/06 10:20:06;;;;;;;18.05;13.77;;;;;;;26.18;70.39;97018.63;5101478;27;20216;-55
2021/09/06 10:22:35;;;;;;;18.45;14.85;;;;;;;26.30;69.97;97015.97;5099588;27;20063;-56
2021/09/06 10:25:06;;;;;;;19.73;14.65;;;;;;;26.35;69.01;97023.38;5113792;27;20441;-55
2021/09/06 10:27:37;;;;;;;17.65;13.77;;;;;;;26.56;66.97;97014.75;5111792;27;20078;-56
2021/09/06 10:30:08;;;;;;;18.63;13.73;;;;;;;26.38;69.74;97020.22;5093132;27;20060;-57
2021/09/06 10:32:39;;;;;;;19.10;14.27;;;;;;;27.36;64.78;97011.53;5102348;27;20090;-57
2021/09/06 10:35:10;;;;;;;16.83;12.98;;;;;;;26.74;69.94;97013.88;5107278;27;20542;-54
2021/09/06 10:37:39;;;;;;;17.48;13.65;;;;;;;26.54;66.30;97021.47;5097684;28;20070;-56
2021/09/06 10:40:27;;;;;;;18.98;14.93;;;;;;;26.36;65.25;97023.19;5096208;28;20076;-57
2021/09/06 10:42:57;;;;;;;19.17;13.32;;;;;;;27.29;63.92;97015.41;5100183;28;20064;-55
2021/09/06 10:45:27;;;;;;;17.50;12.73;;;;;;;26.82;68.10;97015.41;5113515;27;20454;-57
2021/09/06 10:47:59;;;;;;;17.10;13.35;;;;;;;26.99;62.30;97024.47;5097287;27;20055;-57
2021/09/06 10:50:28;;;;;;;15.90;12.20;;;;;;;26.95;61.87;97015.19;5099885;27;20052;-57
2021/09/06 10:52:57;;;;;;;17.60;12.75;;;;;;;27.04;62.02;97007.50;5111084;27;20474;-57
2021/09/06 10:55:25;;;;;;;15.32;12.52;;;;;;;26.89;60.02;97014.22;5110910;27;20083;-57
2021/09/06 10:57:53;;;;;;;16.05;12.38;;;;;;;27.06;64.74;97019.75;5100881;27;20505;-59
2021/09/06 11:00:24;;;;;;;19.35;11.88;;;;;;;26.41;62.93;97023.28;5112682;27;20071;-56
2021/09/06 11:02:53;;;;;;;15.95;12.77;;;;;;;26.22;62.86;97022.53;5091181;27;20083;-56
2021/09/06 11:05:23;;;;;;;18.08;11.77;;;;;;;26.65;62.69;97017.97;5102329;27;20474;-57
2021/09/06 11:08:03;;;;;;;15.45;11.63;;;;;;;27.10;57.45;97017.41;5097741;27;20312;-55
2021/09/06 11:10:32;;;;;;;13.85;10.70;;;;;;;26.60;56.55;97002.44;5118458;27;20549;-55
2021/09/06 11:13:02;;;;;;;13.68;11.10;;;;;;;26.95;61.75;97007.88;5100535;28;20065;-57
2021/09/06 11:15:33;;;;;;;13.25;10.85;;;;;;;26.79;58.10;97013.16;5102166;27;20078;-56
2021/09/06 11:18:05;;;;;;;17.05;11.48;;;;;;;27.69;55.45;97008.13;5101923;27;20071;-56
2021/09/06 11:20:35;;;;;;;14.48;11.38;;;;;;;28.13;57.76;97004.94;5111766;27;20083;-54
2021/09/06 11:23:04;;;;;;;;;;;;;;;27.94;52.90;97007.00;5108158;27;20066;-57
2021/09/06 11:25:38;;;;;;;14.98;10.93;;;;;;;27.82;52.31;97006.25;5100186;27;19963;-57